Jepson Prairie Reserve, California Weather observations

Data are for 10 minute period ending at time listed.
 Day   Time   Solar   Ave.   Ave.  Ave.  Vector  Max.   Baro.   Total    
  of    of     Rad.   Air    Rel.  Wind   Wind   Wind  Press.  Precip.   
Year   Day            Temp.  Hum.  Speed  Dir.   Gust                    
2014   (PST)  Kw/m2    F      %     mph   deg.    mph    mb.     in.     
-------------------------------------------------------------------------
 354    0:00   0.00   52.1    98    7.1   112     8.8   1018.6    0.00 
 354    0:10   0.00   52.3    98    6.7   119     8.5   1018.6    0.00 
 354    0:20   0.00   52.4    98    5.8   130     7.5   1018.6    0.00 
 354    0:30   0.00   52.4    98    4.8   130     6.0   1018.6    0.00 
 354    0:40   0.00   52.4    98    5.6   129     7.2   1018.3    0.00 
 354    0:50   0.00   52.4    98    5.7   138     8.3   1018.0    0.00 
 354    1:00   0.00   52.5    98    6.1   124     8.1   1018.0    0.00 
 354    1:10   0.00   52.5    98    6.1   112     8.3   1018.0    0.00 
 354    1:20   0.00   52.6    98    5.7   122     7.4   1018.3    0.00 
 354    1:30   0.00   52.8    98    3.8   137     5.9   1018.6    0.00 
 354    1:40   0.00   52.9    98    2.4   154     3.6   1018.6    0.00 
 354    1:50   0.00   52.9    98    2.6   206     3.7   1019.0    0.00 
 354    2:00   0.00   52.9    97    1.0   174     3.1   1019.0    0.00 
 354    2:10   0.00   52.9    97    0.4   222     1.2   1018.6    0.00 
 354    2:20   0.00   52.9    97    1.3   212     2.2   1018.6    0.00 
 354    2:30   0.00   53.0    97    0.4   220     1.3   1018.6    0.00 
 354    2:40   0.00   52.9    97    1.4   290     1.9   1018.6    0.00 
 354    2:50   0.00   52.8    97    1.4   292     2.6   1018.3    0.00 
 354    3:00   0.00   52.8    97    0.2    10     1.2   1018.3    0.00 
 354    3:10   0.00   52.9    97    0.6     0     1.7   1018.6    0.00 
 354    3:20   0.00   52.8    97    1.4    14     1.8   1018.3    0.00 
 354    3:30   0.00   52.8    97    1.3    26     2.0   1018.3    0.00 
 354    3:40   0.00   52.8    97    0.5    57     1.6   1018.3    0.00 
 354    3:50   0.00   52.9    97    2.1    92     3.0   1018.0    0.00 
 354    4:00   0.00   52.8    97    3.3    75     3.9   1018.3    0.00 
 354    4:10   0.00   52.9    97    3.1    48     3.9   1018.6    0.00 
 354    4:20   0.00   53.0    98    3.5    61     4.6   1018.6    0.00 
 354    4:30   0.00   53.0    98    5.0    82     6.1   1018.6    0.00 
 354    4:40   0.00   52.9    98    5.3    95     7.3   1018.6    0.00 
 354    4:50   0.00   52.9    98    4.9   105     6.4   1018.6    0.00 
 354    5:00   0.00   52.9    98    5.6   107     7.2   1018.3    0.00 
 354    5:10   0.00   52.9    98    6.3   113     8.6   1018.3    0.00 
 354    5:20   0.00   52.9    98    6.4   115     8.8   1018.6    0.00 
 354    5:30   0.00   52.9    98    5.7   125     6.9   1018.6    0.00 
 354    5:40   0.00   52.9    98    7.5   117    10.2   1018.6    0.00 
 354    5:50   0.00   52.8    98    7.8   106     9.7   1018.6    0.00 
 354    6:00   0.00   52.8    98    7.6   101     9.5   1018.6    0.00 
 354    6:10   0.00   52.7    98    8.8   100    11.2   1018.6    0.00 
 354    6:20   0.00   52.7    98    8.2   103    11.0   1019.0    0.00 
 354    6:30   0.00   52.7    98    8.8   115    11.3   1019.0    0.00 
 354    6:40   0.00   52.7    98   10.4   121    13.4   1019.0    0.00 
 354    6:50   0.00   52.5    98    9.7   121    12.5   1019.0    0.00 
 354    7:00   0.00   52.5    98    9.4   117    11.7   1019.0    0.00 
 354    7:10   0.00   52.4    98    8.1   121    11.5   1019.0    0.00 
 354    7:20   0.00   52.4    98    9.4   128    12.2   1019.0    0.00 
 354    7:30   0.00   52.4    97    9.1   125    11.0   1019.3    0.00 
 354    7:40   0.01   52.5    97    9.8   129    12.1   1019.0    0.00 
 354    7:50   0.01   52.5    97    9.0   132    10.9   1019.3    0.00 
 354    8:00   0.01   52.6    97    9.3   133    12.6   1019.6    0.00 
 354    8:10   0.02   52.6    97    8.9   131    11.6   1020.0    0.00 
 354    8:20   0.03   52.6    97    8.9   134    11.8   1020.0    0.00 
 354    8:30   0.04   52.6    96    7.9   131    10.6   1020.3    0.00 
 354    8:40   0.05   52.8    96    7.7   130     9.7   1020.7    0.00 
 354    8:50   0.07   52.9    96    9.3   131    12.9   1020.3    0.00 
 354    9:00   0.06   52.9    95    9.5   139    12.3   1020.7    0.00 
 354    9:10   0.04   52.9    95    8.6   138    11.1   1021.0    0.00 
 354    9:20   0.05   52.9    95    8.5   137    10.4   1021.0    0.00 
 354    9:30   0.08   53.0    95    9.4   132    12.1   1021.0    0.00 
 354    9:40   0.12   53.2    94   10.7   130    14.1   1020.7    0.00 
 354    9:50   0.07   53.2    94   11.5   121    14.4   1020.7    0.00 
 354   10:00   0.06   53.1    95   10.3   117    13.5   1021.0    0.00 
 354   10:10   0.08   53.1    94    9.5   124    11.5   1021.3    0.00 
 354   10:20   0.15   53.5    94    9.4   120    12.4   1021.3    0.00 
 354   10:30   0.13   53.7    94   11.4   115    13.8   1021.0    0.00 
 354   10:40   0.12   53.8    94   10.6   118    13.5   1021.3    0.00 
 354   10:50   0.14   53.9    94   10.5   118    13.2   1021.3    0.00 
 354   11:00   0.12   54.0    94   10.8   108    13.0   1021.3    0.00 
 354   11:10   0.12   53.9    94   11.4   114    14.1   1021.0    0.00 
 354   11:20   0.17   54.2    94   12.6   122    15.3   1020.7    0.00 
 354   11:30   0.20   54.2    93   12.0   123    15.1   1021.0    0.00 
 354   11:40   0.28   54.9    93    9.1   137    11.5   1021.0    0.00 
 354   11:50   0.22   55.2    92    8.5   137    11.3   1020.7    0.00 
 354   12:00   0.22   55.3    92    7.9   126    10.2   1021.0    0.00 
 354   12:10   0.17   55.6    91    7.0   140     9.2   1021.0    0.00 
 354   12:20   0.13   55.5    91    7.6   144     9.5   1020.7    0.00 
 354   12:30   0.12   55.4    91    6.7   145     8.8   1020.7    0.00 
 354   12:40   0.17   55.9    91    6.5   146     8.1   1020.3    0.00 
 354   12:50   0.16   56.1    91    5.8   150     7.7   1020.3    0.00 
 354   13:00   0.12   56.3    90    4.7   171     6.9   1020.7    0.00 
 354   13:10   0.12   56.4    90    4.0   171     5.3   1020.7    0.00 
 354   13:20   0.10   56.5    89    3.7   158     5.3   1020.7    0.00 
 354   13:30   0.15   56.6    90    4.8   124     6.6   1020.3    0.00 
 354   13:40   0.11   56.7    89    4.0   136     6.2   1020.7    0.00 
 354   13:50   0.09   56.6    90    4.4   114     6.4   1020.7    0.00 
 354   14:00   0.09   56.5    90    5.4    98     6.5   1020.7    0.00 
 354   14:10   0.07   56.5    90    6.9   104     8.7   1020.3    0.00 
 354   14:20   0.07   56.4    91    5.8   113     7.7   1020.7    0.00 
 354   14:30   0.07   56.3    91    7.8   111     9.7   1020.3    0.00 
 354   14:40   0.12   56.4    91    9.5   113    11.8   1019.6    0.00 
 354   14:50   0.12   56.8    90    9.1   111    11.3   1020.0    0.00 
 354   15:00   0.09   56.8    91    8.9   112    11.4   1020.0    0.00 
 354   15:10   0.06   56.8    91    8.1   116    10.3   1020.3    0.00 
 354   15:20   0.04   56.6    91    6.9   118     8.8   1020.7    0.00 
 354   15:30   0.04   56.6    92    7.8   123    10.4   1020.3    0.00 
 354   15:40   0.03   56.4    92    7.7   116    10.2   1020.3    0.00 
 354   15:50   0.01   56.4    92    6.3   128     8.6   1020.7    0.00 
 354   16:00   0.01   56.4    92    5.8   126     7.2   1021.0    0.00 
 354   16:10   0.01   56.4    92    2.4   176     5.6   1021.0    0.00 
 354   16:20   0.01   56.5    92    1.2   194     3.0   1021.0    0.00 
 354   16:30   0.01   56.4    92    4.2   124     5.6   1021.0    0.00 
 354   16:40   0.01   56.3    92    4.9   132     6.2   1021.0    0.00 
 354   16:50   0.00   56.0    93    4.6   120     6.2   1021.0    0.00 
 354   17:00   0.00   55.9    94    4.9   129     5.8   1021.0    0.00 
 354   17:10   0.00   55.9    94    2.3   145     4.4   1021.0    0.00 
 354   17:20   0.00   55.8    94    2.2   153     2.8   1021.0    0.00 
 354   17:30   0.00   55.7    94    3.4   124     4.5   1021.0    0.00 
 354   17:40   0.00   55.6    95    3.4   118     4.2   1021.0    0.00 
 354   17:50   0.00   55.4    96    5.1   105     6.9   1021.0    0.00 
 354   18:00   0.00   55.3    96    6.9   108     9.3   1021.0    0.00 
 354   18:10   0.00   55.4    96    7.2   118     8.8   1021.0    0.00 
 354   18:20   0.00   55.6    96    7.8   120     9.9   1021.0    0.00 
 354   18:30   0.00   55.7    95    7.4   117     8.9   1021.0    0.00 
 354   18:40   0.00   55.6    95    8.2   112     9.9   1021.0    0.00 
 354   18:50   0.00   55.5    95    7.5   108     9.3   1021.0    0.00 
 354   19:00   0.00   55.4    95    7.8   117     9.7   1021.0    0.00 
 354   19:10   0.00   55.4    95    7.8   126     9.6   1021.0    0.00 
 354   19:20   0.00   55.5    95    8.1   124     9.9   1021.0    0.00 
 354   19:30   0.00   55.5    95    7.4   130     9.5   1021.3    0.00 
 354   19:40   0.00   55.7    94    7.2   126     8.9   1021.3    0.00 
 354   19:50   0.00   55.5    94    6.9   124     9.0   1021.3    0.00 
 354   20:00   0.00   55.5    94    6.4   124     8.2   1021.3    0.00 
 354   20:10   0.00   55.4    94    7.3   116     8.9   1021.3    0.00 
 354   20:20   0.00   55.4    95    7.4   103     8.4   1021.3    0.00 
 354   20:30   0.00   55.4    94    7.1   117     9.9   1021.7    0.00 
 354   20:40   0.00   55.4    94    7.2   115     9.1   1021.7    0.00 
 354   20:50   0.00   55.4    94    7.1   109     8.8   1021.7    0.00 
 354   21:00   0.00   55.4    93    5.8   121     8.5   1022.0    0.00 
 354   21:10   0.00   55.5    93    5.2   114     7.8   1022.0    0.00 
 354   21:20   0.00   55.5    93    5.3   117     8.8   1022.0    0.00 
 354   21:30   0.00   55.6    93    7.1   125     9.3   1022.0    0.00 
 354   21:40   0.00   55.8    91    7.1   134    10.2   1022.4    0.00 
 354   21:50   0.00   55.6    93    6.8   124    10.4   1022.0    0.00 
 354   22:00   0.00   55.4    93    7.3   124    10.7   1022.0    0.00 
 354   22:10   0.00   55.5    93    6.5   118     8.8   1022.4    0.00 
 354   22:20   0.00   55.4    93    6.7   124     8.7   1022.4    0.00 
 354   22:30   0.00   55.5    92    7.1   129     9.1   1022.0    0.00 
 354   22:40   0.00   55.7    91    7.4   133     9.6   1022.0    0.00 
 354   22:50   0.00   55.8    91    6.0   150     7.6   1022.0    0.00 
 354   23:00   0.00   55.8    91    6.2   163     8.3   1022.0    0.00 

Return to Jepson Prairie Reserve graphs page.


Western Regional Climate Center,wrcc@dri.edu